sensor_id;sensor_type;location;lat;lon;timestamp;temperature;humidity
6556;DHT22;3311;48.32423000;14.29074500;2022-09-09T05:01:51;18.90;77.30
6556;DHT22;3311;48.32423000;14.29074500;2022-09-09T05:04:20;19.00;77.40
6556;DHT22;3311;48.32423000;14.29074500;2022-09-09T05:06:48;19.30;77.70
6556;DHT22;3311;48.32423000;14.29074500;2022-09-09T05:09:15;19.70;76.30
6556;DHT22;3311;48.32423000;14.29074500;2022-09-09T05:11:42;20.10;75.50
6556;DHT22;3311;48.32423000;14.29074500;2022-09-09T05:14:09;20.30;74.90
6556;DHT22;3311;48.32423000;14.29074500;2022-09-09T05:16:38;20.40;74.50
6556;DHT22;3311;48.32423000;14.29074500;2022-09-09T05:19:06;20.50;74.20
6556;DHT22;3311;48.32423000;14.29074500;2022-09-09T05:21:34;20.40;74.20
6556;DHT22;3311;48.32423000;14.29074500;2022-09-09T05:24:02;20.30;74.90
6556;DHT22;3311;48.32423000;14.29074500;2022-09-09T05:26:29;20.20;75.70
6556;DHT22;3311;48.32423000;14.29074500;2022-09-09T05:28:57;20.10;76.40
6556;DHT22;3311;48.32423000;14.29074500;2022-09-09T05:31:26;20.10;76.50
6556;DHT22;3311;48.32423000;14.29074500;2022-09-09T05:33:54;20.20;76.60
6556;DHT22;3311;48.32423000;14.29074500;2022-09-09T05:36:23;20.30;76.70
6556;DHT22;3311;48.32423000;14.29074500;2022-09-09T05:38:50;20.30;76.70
6556;DHT22;3311;48.32423000;14.29074500;2022-09-09T05:41:19;20.40;77.00
6556;DHT22;3311;48.32423000;14.29074500;2022-09-09T05:43:48;20.20;76.50
6556;DHT22;3311;48.32423000;14.29074500;2022-09-09T05:46:17;20.00;76.90
6556;DHT22;3311;48.32423000;14.29074500;2022-09-09T05:48:46;20.00;76.50
6556;DHT22;3311;48.32423000;14.29074500;2022-09-09T05:51:15;19.70;76.50
6556;DHT22;3311;48.32423000;14.29074500;2022-09-09T05:53:45;19.40;77.50
6556;DHT22;3311;48.32423000;14.29074500;2022-09-09T05:56:14;19.60;77.80
6556;DHT22;3311;48.32423000;14.29074500;2022-09-09T05:58:43;19.70;77.40
6556;DHT22;3311;48.32423000;14.29074500;2022-09-09T06:01:14;19.50;77.90
6556;DHT22;3311;48.32423000;14.29074500;2022-09-09T06:03:43;19.30;78.80
6556;DHT22;3311;48.32423000;14.29074500;2022-09-09T06:06:12;19.10;79.10
6556;DHT22;3311;48.32423000;14.29074500;2022-09-09T06:08:41;18.90;79.70
6556;DHT22;3311;48.32423000;14.29074500;2022-09-09T06:11:13;19.00;80.10
6556;DHT22;3311;48.32423000;14.29074500;2022-09-09T06:13:40;18.90;80.00
6556;DHT22;3311;48.32423000;14.29074500;2022-09-09T06:16:08;19.10;79.90
6556;DHT22;3311;48.32423000;14.29074500;2022-09-09T06:18:37;19.30;79.10
6556;DHT22;3311;48.32423000;14.29074500;2022-09-09T06:21:06;19.30;79.00
6556;DHT22;3311;48.32423000;14.29074500;2022-09-09T06:23:34;19.70;78.40
6556;DHT22;3311;48.32423000;14.29074500;2022-09-09T06:26:04;20.10;77.30
6556;DHT22;3311;48.32423000;14.29074500;2022-09-09T06:28:34;20.30;76.70
6556;DHT22;3311;48.32423000;14.29074500;2022-09-09T06:31:04;20.40;76.40
6556;DHT22;3311;48.32423000;14.29074500;2022-09-09T06:33:33;20.60;75.90
6556;DHT22;3311;48.32423000;14.29074500;2022-09-09T06:36:01;20.70;75.70
6556;DHT22;3311;48.32423000;14.29074500;2022-09-09T06:38:29;20.70;75.70
6556;DHT22;3311;48.32423000;14.29074500;2022-09-09T06:40:58;20.70;75.50
6556;DHT22;3311;48.32423000;14.29074500;2022-09-09T06:43:28;20.70;75.70
6556;DHT22;3311;48.32423000;14.29074500;2022-09-09T06:45:59;20.70;75.80
6556;DHT22;3311;48.32423000;14.29074500;2022-09-09T06:48:27;20.70;75.90
6556;DHT22;3311;48.32423000;14.29074500;2022-09-09T06:51:01;20.80;75.80
6556;DHT22;3311;48.32423000;14.29074500;2022-09-09T06:53:28;20.90;75.70
6556;DHT22;3311;48.32423000;14.29074500;2022-09-09T06:55:55;20.90;75.50
6556;DHT22;3311;48.32423000;14.29074500;2022-09-09T06:58:22;20.90;75.40
6556;DHT22;3311;48.32423000;14.29074500;2022-09-09T07:00:50;20.90;75.40
6556;DHT22;3311;48.32423000;14.29074500;2022-09-09T07:03:18;20.90;75.50
6556;DHT22;3311;48.32423000;14.29074500;2022-09-09T07:05:54;21.10;75.50
6556;DHT22;3311;48.32423000;14.29074500;2022-09-09T07:08:22;21.20;74.90
6556;DHT22;3311;48.32423000;14.29074500;2022-09-09T07:10:50;21.40;74.80
6556;DHT22;3311;48.32423000;14.29074500;2022-09-09T07:13:19;21.50;74.70
6556;DHT22;3311;48.32423000;14.29074500;2022-09-09T07:15:50;21.50;74.80
6556;DHT22;3311;48.32423000;14.29074500;2022-09-09T07:18:19;21.60;74.30
6556;DHT22;3311;48.32423000;14.29074500;2022-09-09T07:20:53;21.70;74.00
6556;DHT22;3311;48.32423000;14.29074500;2022-09-09T07:23:20;21.70;73.60
6556;DHT22;3311;48.32423000;14.29074500;2022-09-09T07:25:48;21.70;73.40
6556;DHT22;3311;48.32423000;14.29074500;2022-09-09T07:28:16;21.70;73.40
6556;DHT22;3311;48.32423000;14.29074500;2022-09-09T07:30:43;21.70;73.50
6556;DHT22;3311;48.32423000;14.29074500;2022-09-09T07:33:10;21.70;73.50
6556;DHT22;3311;48.32423000;14.29074500;2022-09-09T07:35:39;21.70;73.60
6556;DHT22;3311;48.32423000;14.29074500;2022-09-09T07:38:08;21.70;73.30
6556;DHT22;3311;48.32423000;14.29074500;2022-09-09T07:40:36;21.60;73.40
6556;DHT22;3311;48.32423000;14.29074500;2022-09-09T07:43:05;21.60;73.60
6556;DHT22;3311;48.32423000;14.29074500;2022-09-09T07:45:34;21.60;73.40
6556;DHT22;3311;48.32423000;14.29074500;2022-09-09T07:48:02;21.50;73.30
6556;DHT22;3311;48.32423000;14.29074500;2022-09-09T07:50:29;21.50;73.30
6556;DHT22;3311;48.32423000;14.29074500;2022-09-09T07:52:58;21.50;73.40
6556;DHT22;3311;48.32423000;14.29074500;2022-09-09T07:55:26;21.40;73.60
6556;DHT22;3311;48.32423000;14.29074500;2022-09-09T07:57:53;21.40;73.70
6556;DHT22;3311;48.32423000;14.29074500;2022-09-09T08:00:22;21.30;74.00
6556;DHT22;3311;48.32423000;14.29074500;2022-09-09T08:02:49;21.30;74.20
6556;DHT22;3311;48.32423000;14.29074500;2022-09-09T08:05:18;21.20;74.20
6556;DHT22;3311;48.32423000;14.29074500;2022-09-09T08:07:45;21.20;74.00
6556;DHT22;3311;48.32423000;14.29074500;2022-09-09T08:10:14;21.10;74.00
6556;DHT22;3311;48.32423000;14.29074500;2022-09-09T08:12:41;21.10;74.40
6556;DHT22;3311;48.32423000;14.29074500;2022-09-09T08:15:09;21.00;74.80
6556;DHT22;3311;48.32423000;14.29074500;2022-09-09T08:17:36;21.00;74.90
6556;DHT22;3311;48.32423000;14.29074500;2022-09-09T08:20:04;21.00;74.90
6556;DHT22;3311;48.32423000;14.29074500;2022-09-09T08:22:32;21.10;74.90
6556;DHT22;3311;48.32423000;14.29074500;2022-09-09T08:25:00;21.10;74.90
6556;DHT22;3311;48.32423000;14.29074500;2022-09-09T08:27:30;21.20;74.80
6556;DHT22;3311;48.32423000;14.29074500;2022-09-09T08:29:58;21.20;74.70
6556;DHT22;3311;48.32423000;14.29074500;2022-09-09T08:32:25;21.20;74.70
6556;DHT22;3311;48.32423000;14.29074500;2022-09-09T08:34:53;21.20;75.00
6556;DHT22;3311;48.32423000;14.29074500;2022-09-09T08:37:20;21.20;75.30
6556;DHT22;3311;48.32423000;14.29074500;2022-09-09T08:39:47;21.20;75.50
6556;DHT22;3311;48.32423000;14.29074500;2022-09-09T08:42:26;21.20;75.50
6556;DHT22;3311;48.32423000;14.29074500;2022-09-09T08:45:18;21.20;75.60
6556;DHT22;3311;48.32423000;14.29074500;2022-09-09T08:47:59;21.20;75.60
6556;DHT22;3311;48.32423000;14.29074500;2022-09-09T08:50:30;21.20;75.50
6556;DHT22;3311;48.32423000;14.29074500;2022-09-09T08:53:03;21.30;75.50
6556;DHT22;3311;48.32423000;14.29074500;2022-09-09T08:55:40;21.30;75.50
6556;DHT22;3311;48.32423000;14.29074500;2022-09-09T08:58:15;21.30;75.60
6556;DHT22;3311;48.32423000;14.29074500;2022-09-09T09:01:09;21.30;75.50
6556;DHT22;3311;48.32423000;14.29074500;2022-09-09T09:03:44;21.30;75.60
6556;DHT22;3311;48.32423000;14.29074500;2022-09-09T09:06:35;21.30;75.70
6556;DHT22;3311;48.32423000;14.29074500;2022-09-09T09:09:11;21.30;75.90
6556;DHT22;3311;48.32423000;14.29074500;2022-09-09T09:11:47;21.30;76.10
6556;DHT22;3311;48.32423000;14.29074500;2022-09-09T09:14:18;21.30;76.30
6556;DHT22;3311;48.32423000;14.29074500;2022-09-09T09:16:52;21.30;76.50
6556;DHT22;3311;48.32423000;14.29074500;2022-09-09T09:19:20;21.30;76.50
6556;DHT22;3311;48.32423000;14.29074500;2022-09-09T09:21:56;21.20;76.60
6556;DHT22;3311;48.32423000;14.29074500;2022-09-09T09:24:29;21.20;76.60
6556;DHT22;3311;48.32423000;14.29074500;2022-09-09T09:27:10;21.30;76.60
6556;DHT22;3311;48.32423000;14.29074500;2022-09-09T09:29:40;21.30;76.50
6556;DHT22;3311;48.32423000;14.29074500;2022-09-09T09:32:14;21.30;76.80
6556;DHT22;3311;48.32423000;14.29074500;2022-09-09T09:34:49;21.10;77.50
6556;DHT22;3311;48.32423000;14.29074500;2022-09-09T09:37:20;21.10;77.60
6556;DHT22;3311;48.32423000;14.29074500;2022-09-09T09:39:49;21.20;77.10
6556;DHT22;3311;48.32423000;14.29074500;2022-09-09T09:42:18;21.30;76.90
6556;DHT22;3311;48.32423000;14.29074500;2022-09-09T09:44:45;21.30;77.60
6556;DHT22;3311;48.32423000;14.29074500;2022-09-09T09:47:16;21.00;79.10
6556;DHT22;3311;48.32423000;14.29074500;2022-09-09T09:49:52;20.50;81.10
6556;DHT22;3311;48.32423000;14.29074500;2022-09-09T09:52:23;20.20;82.10
6556;DHT22;3311;48.32423000;14.29074500;2022-09-09T09:54:51;20.40;82.40
6556;DHT22;3311;48.32423000;14.29074500;2022-09-09T09:57:24;20.60;81.30
6556;DHT22;3311;48.32423000;14.29074500;2022-09-09T10:00:03;20.70;80.80
6556;DHT22;3311;48.32423000;14.29074500;2022-09-09T10:02:40;20.80;81.10
6556;DHT22;3311;48.32423000;14.29074500;2022-09-09T10:05:14;20.50;82.40
6556;DHT22;3311;48.32423000;14.29074500;2022-09-09T10:07:43;20.70;82.00
6556;DHT22;3311;48.32423000;14.29074500;2022-09-09T10:10:23;20.70;82.10
6556;DHT22;3311;48.32423000;14.29074500;2022-09-09T10:12:59;20.60;82.10
6556;DHT22;3311;48.32423000;14.29074500;2022-09-09T10:15:38;20.30;83.00
6556;DHT22;3311;48.32423000;14.29074500;2022-09-09T10:18:33;20.30;83.60
6556;DHT22;3311;48.32423000;14.29074500;2022-09-09T10:21:09;20.30;83.50
6556;DHT22;3311;48.32423000;14.29074500;2022-09-09T10:23:57;20.40;83.30
6556;DHT22;3311;48.32423000;14.29074500;2022-09-09T10:26:38;20.40;82.90
6556;DHT22;3311;48.32423000;14.29074500;2022-09-09T10:29:27;20.40;82.70
6556;DHT22;3311;48.32423000;14.29074500;2022-09-09T10:32:07;20.20;83.30
6556;DHT22;3311;48.32423000;14.29074500;2022-09-09T10:34:52;20.30;83.10
6556;DHT22;3311;48.32423000;14.29074500;2022-09-09T10:37:35;20.50;82.30
6556;DHT22;3311;48.32423000;14.29074500;2022-09-09T10:40:27;20.70;81.50
6556;DHT22;3311;48.32423000;14.29074500;2022-09-09T10:43:04;20.90;81.10
6556;DHT22;3311;48.32423000;14.29074500;2022-09-09T10:45:45;21.00;81.00
6556;DHT22;3311;48.32423000;14.29074500;2022-09-09T10:48:36;21.00;81.30
6556;DHT22;3311;48.32423000;14.29074500;2022-09-09T10:51:21;21.10;81.20
6556;DHT22;3311;48.32423000;14.29074500;2022-09-09T10:53:58;21.10;81.20
6556;DHT22;3311;48.32423000;14.29074500;2022-09-09T10:56:30;21.10;81.10
6556;DHT22;3311;48.32423000;14.29074500;2022-09-09T10:59:03;21.10;80.90
6556;DHT22;3311;48.32423000;14.29074500;2022-09-09T11:01:36;21.20;81.40
6556;DHT22;3311;48.32423000;14.29074500;2022-09-09T11:04:10;21.20;82.10
6556;DHT22;3311;48.32423000;14.29074500;2022-09-09T11:06:45;21.20;81.50
6556;DHT22;3311;48.32423000;14.29074500;2022-09-09T11:09:21;21.30;81.50
6556;DHT22;3311;48.32423000;14.29074500;2022-09-09T11:11:52;21.30;81.40
6556;DHT22;3311;48.32423000;14.29074500;2022-09-09T11:14:26;21.20;81.40
6556;DHT22;3311;48.32423000;14.29074500;2022-09-09T11:16:58;21.20;81.30
6556;DHT22;3311;48.32423000;14.29074500;2022-09-09T11:19:32;21.20;81.40
6556;DHT22;3311;48.32423000;14.29074500;2022-09-09T11:22:06;21.20;81.50
6556;DHT22;3311;48.32423000;14.29074500;2022-09-09T11:24:38;21.20;81.90
6556;DHT22;3311;48.32423000;14.29074500;2022-09-09T11:27:15;21.20;81.70
6556;DHT22;3311;48.32423000;14.29074500;2022-09-09T11:30:18;21.20;81.60
6556;DHT22;3311;48.32423000;14.29074500;2022-09-09T11:36:06;21.20;81.70
6556;DHT22;3311;48.32423000;14.29074500;2022-09-09T11:38:42;21.20;81.70
6556;DHT22;3311;48.32423000;14.29074500;2022-09-09T11:41:12;21.20;81.70
6556;DHT22;3311;48.32423000;14.29074500;2022-09-09T11:43:42;21.30;81.70
6556;DHT22;3311;48.32423000;14.29074500;2022-09-09T11:46:10;21.30;81.60
6556;DHT22;3311;48.32423000;14.29074500;2022-09-09T11:48:40;21.30;81.70
6556;DHT22;3311;48.32423000;14.29074500;2022-09-09T11:51:13;21.30;81.60
6556;DHT22;3311;48.32423000;14.29074500;2022-09-09T11:53:53;21.40;81.40
6556;DHT22;3311;48.32423000;14.29074500;2022-09-09T11:56:27;21.40;81.30
6556;DHT22;3311;48.32423000;14.29074500;2022-09-09T11:58:59;21.40;81.20
6556;DHT22;3311;48.32423000;14.29074500;2022-09-09T12:01:34;21.50;81.30
6556;DHT22;3311;48.32423000;14.29074500;2022-09-09T12:04:15;21.50;81.10
6556;DHT22;3311;48.32423000;14.29074500;2022-09-09T12:06:44;21.50;81.10
6556;DHT22;3311;48.32423000;14.29074500;2022-09-09T12:09:44;21.50;81.20
6556;DHT22;3311;48.32423000;14.29074500;2022-09-09T12:12:28;21.50;80.80
6556;DHT22;3311;48.32423000;14.29074500;2022-09-09T12:14:59;21.50;81.00
6556;DHT22;3311;48.32423000;14.29074500;2022-09-09T12:17:28;21.50;81.00
6556;DHT22;3311;48.32423000;14.29074500;2022-09-09T12:20:12;21.50;81.10
6556;DHT22;3311;48.32423000;14.29074500;2022-09-09T12:22:49;21.50;81.00
6556;DHT22;3311;48.32423000;14.29074500;2022-09-09T12:25:25;21.50;80.90
6556;DHT22;3311;48.32423000;14.29074500;2022-09-09T12:28:04;21.50;80.90
6556;DHT22;3311;48.32423000;14.29074500;2022-09-09T12:30:41;21.50;81.00
6556;DHT22;3311;48.32423000;14.29074500;2022-09-09T12:33:12;21.50;81.00
6556;DHT22;3311;48.32423000;14.29074500;2022-09-09T12:35:42;21.50;81.00
6556;DHT22;3311;48.32423000;14.29074500;2022-09-09T12:38:15;21.50;80.90
6556;DHT22;3311;48.32423000;14.29074500;2022-09-09T12:40:54;21.50;80.80
6556;DHT22;3311;48.32423000;14.29074500;2022-09-09T12:43:24;21.50;80.80
6556;DHT22;3311;48.32423000;14.29074500;2022-09-09T12:45:55;21.50;80.80
6556;DHT22;3311;48.32423000;14.29074500;2022-09-09T12:48:30;21.50;80.80
6556;DHT22;3311;48.32423000;14.29074500;2022-09-09T12:50:58;21.50;80.60
6556;DHT22;3311;48.32423000;14.29074500;2022-09-09T12:53:28;21.60;80.70
6556;DHT22;3311;48.32423000;14.29074500;2022-09-09T12:56:00;21.60;80.60
6556;DHT22;3311;48.32423000;14.29074500;2022-09-09T12:58:29;21.60;80.30
6556;DHT22;3311;48.32423000;14.29074500;2022-09-09T13:01:00;21.60;80.50
6556;DHT22;3311;48.32423000;14.29074500;2022-09-09T13:03:31;21.60;80.60
6556;DHT22;3311;48.32423000;14.29074500;2022-09-09T13:06:11;21.60;80.60
6556;DHT22;3311;48.32423000;14.29074500;2022-09-09T13:08:40;21.60;80.60
6556;DHT22;3311;48.32423000;14.29074500;2022-09-09T13:11:12;21.60;80.70
6556;DHT22;3311;48.32423000;14.29074500;2022-09-09T13:13:42;21.60;80.60
6556;DHT22;3311;48.32423000;14.29074500;2022-09-09T13:16:21;21.60;80.80
6556;DHT22;3311;48.32423000;14.29074500;2022-09-09T13:18:50;21.60;80.60
6556;DHT22;3311;48.32423000;14.29074500;2022-09-09T13:21:18;21.60;80.60
6556;DHT22;3311;48.32423000;14.29074500;2022-09-09T13:23:50;21.60;80.60
6556;DHT22;3311;48.32423000;14.29074500;2022-09-09T13:26:24;21.70;80.50
6556;DHT22;3311;48.32423000;14.29074500;2022-09-09T13:28:52;21.70;80.30
6556;DHT22;3311;48.32423000;14.29074500;2022-09-09T13:31:22;21.70;79.90
6556;DHT22;3311;48.32423000;14.29074500;2022-09-09T13:33:50;21.60;79.80
6556;DHT22;3311;48.32423000;14.29074500;2022-09-09T13:36:28;21.60;79.90
6556;DHT22;3311;48.32423000;14.29074500;2022-09-09T13:38:57;21.60;79.90
6556;DHT22;3311;48.32423000;14.29074500;2022-09-09T13:41:30;21.60;80.00
6556;DHT22;3311;48.32423000;14.29074500;2022-09-09T13:43:59;21.60;79.90
6556;DHT22;3311;48.32423000;14.29074500;2022-09-09T13:46:32;21.50;79.70
6556;DHT22;3311;48.32423000;14.29074500;2022-09-09T13:49:02;21.50;79.70
6556;DHT22;3311;48.32423000;14.29074500;2022-09-09T13:51:34;21.60;79.50
6556;DHT22;3311;48.32423000;14.29074500;2022-09-09T13:54:03;21.50;79.40
6556;DHT22;3311;48.32423000;14.29074500;2022-09-09T13:56:33;21.50;79.30
6556;DHT22;3311;48.32423000;14.29074500;2022-09-09T13:59:02;21.50;79.30
6556;DHT22;3311;48.32423000;14.29074500;2022-09-09T14:01:29;21.50;79.20
6556;DHT22;3311;48.32423000;14.29074500;2022-09-09T14:03:57;21.50;79.20
6556;DHT22;3311;48.32423000;14.29074500;2022-09-09T14:06:25;21.50;79.30
6556;DHT22;3311;48.32423000;14.29074500;2022-09-09T14:08:53;21.50;79.30
6556;DHT22;3311;48.32423000;14.29074500;2022-09-09T14:11:21;21.50;79.30
6556;DHT22;3311;48.32423000;14.29074500;2022-09-09T14:13:49;21.50;79.50
6556;DHT22;3311;48.32423000;14.29074500;2022-09-09T14:16:16;21.40;79.70
6556;DHT22;3311;48.32423000;14.29074500;2022-09-09T14:18:45;21.40;79.80
6556;DHT22;3311;48.32423000;14.29074500;2022-09-09T14:21:12;21.40;79.80
6556;DHT22;3311;48.32423000;14.29074500;2022-09-09T14:23:41;21.40;79.90
6556;DHT22;3311;48.32423000;14.29074500;2022-09-09T14:26:09;21.40;80.00
6556;DHT22;3311;48.32423000;14.29074500;2022-09-09T14:28:36;21.40;80.00
6556;DHT22;3311;48.32423000;14.29074500;2022-09-09T14:31:07;21.40;80.10
6556;DHT22;3311;48.32423000;14.29074500;2022-09-09T14:33:36;21.30;80.00
6556;DHT22;3311;48.32423000;14.29074500;2022-09-09T14:36:04;21.30;80.00
6556;DHT22;3311;48.32423000;14.29074500;2022-09-09T14:38:33;21.30;80.00
6556;DHT22;3311;48.32423000;14.29074500;2022-09-09T14:41:05;21.30;79.90
6556;DHT22;3311;48.32423000;14.29074500;2022-09-09T14:43:33;21.30;79.90
6556;DHT22;3311;48.32423000;14.29074500;2022-09-09T14:46:07;21.30;79.80
6556;DHT22;3311;48.32423000;14.29074500;2022-09-09T14:48:34;21.30;79.90
6556;DHT22;3311;48.32423000;14.29074500;2022-09-09T14:51:06;21.30;79.90
6556;DHT22;3311;48.32423000;14.29074500;2022-09-09T14:53:34;21.30;79.90
6556;DHT22;3311;48.32423000;14.29074500;2022-09-09T14:56:06;21.30;79.80
6556;DHT22;3311;48.32423000;14.29074500;2022-09-09T14:58:35;21.30;79.80
6556;DHT22;3311;48.32423000;14.29074500;2022-09-09T15:01:05;21.30;79.80
6556;DHT22;3311;48.32423000;14.29074500;2022-09-09T15:03:34;21.30;79.70
6556;DHT22;3311;48.32423000;14.29074500;2022-09-09T15:06:06;21.30;79.70
6556;DHT22;3311;48.32423000;14.29074500;2022-09-09T15:08:34;21.30;79.70
6556;DHT22;3311;48.32423000;14.29074500;2022-09-09T15:11:04;21.30;79.80
6556;DHT22;3311;48.32423000;14.29074500;2022-09-09T15:13:32;21.30;79.70
6556;DHT22;3311;48.32423000;14.29074500;2022-09-09T15:16:04;21.30;79.70
6556;DHT22;3311;48.32423000;14.29074500;2022-09-09T15:18:34;21.30;79.80
6556;DHT22;3311;48.32423000;14.29074500;2022-09-09T15:21:02;21.30;79.80
6556;DHT22;3311;48.32423000;14.29074500;2022-09-09T15:23:31;21.30;79.90
6556;DHT22;3311;48.32423000;14.29074500;2022-09-09T15:25:58;21.30;80.10
6556;DHT22;3311;48.32423000;14.29074500;2022-09-09T15:28:26;21.30;80.30
6556;DHT22;3311;48.32423000;14.29074500;2022-09-09T15:30:54;21.30;80.40
6556;DHT22;3311;48.32423000;14.29074500;2022-09-09T15:33:22;21.20;80.60
6556;DHT22;3311;48.32423000;14.29074500;2022-09-09T15:35:51;21.20;80.90
6556;DHT22;3311;48.32423000;14.29074500;2022-09-09T15:38:20;21.10;80.90
6556;DHT22;3311;48.32423000;14.29074500;2022-09-09T15:40:53;21.10;80.90
6556;DHT22;3311;48.32423000;14.29074500;2022-09-09T15:43:21;21.10;81.10
6556;DHT22;3311;48.32423000;14.29074500;2022-09-09T15:45:54;21.10;81.20
6556;DHT22;3311;48.32423000;14.29074500;2022-09-09T15:48:30;21.10;81.30
6556;DHT22;3311;48.32423000;14.29074500;2022-09-09T15:51:03;21.10;81.40
6556;DHT22;3311;48.32423000;14.29074500;2022-09-09T15:53:30;21.10;81.40
6556;DHT22;3311;48.32423000;14.29074500;2022-09-09T15:55:58;21.10;81.40
6556;DHT22;3311;48.32423000;14.29074500;2022-09-09T15:58:29;21.10;81.20
6556;DHT22;3311;48.32423000;14.29074500;2022-09-09T16:01:02;21.10;81.10
6556;DHT22;3311;48.32423000;14.29074500;2022-09-09T16:03:33;21.00;81.30
6556;DHT22;3311;48.32423000;14.29074500;2022-09-09T16:06:02;21.00;81.30
6556;DHT22;3311;48.32423000;14.29074500;2022-09-09T16:08:32;21.00;81.30
6556;DHT22;3311;48.32423000;14.29074500;2022-09-09T16:11:05;21.00;81.30
6556;DHT22;3311;48.32423000;14.29074500;2022-09-09T16:13:34;21.00;81.10
6556;DHT22;3311;48.32423000;14.29074500;2022-09-09T16:16:01;21.00;81.20
6556;DHT22;3311;48.32423000;14.29074500;2022-09-09T16:18:36;21.00;81.30
6556;DHT22;3311;48.32423000;14.29074500;2022-09-09T16:21:06;21.00;81.10
6556;DHT22;3311;48.32423000;14.29074500;2022-09-09T16:23:34;21.00;81.10
6556;DHT22;3311;48.32423000;14.29074500;2022-09-09T16:26:02;21.00;81.10
6556;DHT22;3311;48.32423000;14.29074500;2022-09-09T16:28:29;20.90;81.40
6556;DHT22;3311;48.32423000;14.29074500;2022-09-09T16:30:57;21.00;81.50
6556;DHT22;3311;48.32423000;14.29074500;2022-09-09T16:33:24;21.00;81.20
6556;DHT22;3311;48.32423000;14.29074500;2022-09-09T16:35:53;21.10;81.20
6556;DHT22;3311;48.32423000;14.29074500;2022-09-09T16:38:22;21.10;81.10
6556;DHT22;3311;48.32423000;14.29074500;2022-09-09T16:40:50;21.00;81.50
6556;DHT22;3311;48.32423000;14.29074500;2022-09-09T16:43:17;20.90;81.70
6556;DHT22;3311;48.32423000;14.29074500;2022-09-09T16:45:45;20.90;81.80
6556;DHT22;3311;48.32423000;14.29074500;2022-09-09T16:48:14;20.90;82.00
6556;DHT22;3311;48.32423000;14.29074500;2022-09-09T16:50:41;20.80;82.20
6556;DHT22;3311;48.32423000;14.29074500;2022-09-09T16:53:09;20.90;82.40
6556;DHT22;3311;48.32423000;14.29074500;2022-09-09T16:55:42;20.80;82.50
6556;DHT22;3311;48.32423000;14.29074500;2022-09-09T16:58:12;20.80;82.60
6556;DHT22;3311;48.32423000;14.29074500;2022-09-09T17:00:41;20.80;82.80
6556;DHT22;3311;48.32423000;14.29074500;2022-09-09T17:03:12;20.90;82.60
6556;DHT22;3311;48.32423000;14.29074500;2022-09-09T17:05:40;21.00;82.40
6556;DHT22;3311;48.32423000;14.29074500;2022-09-09T17:08:07;20.90;82.40
6556;DHT22;3311;48.32423000;14.29074500;2022-09-09T17:10:41;20.80;82.80
6556;DHT22;3311;48.32423000;14.29074500;2022-09-09T17:13:09;20.80;83.00
6556;DHT22;3311;48.32423000;14.29074500;2022-09-09T17:15:42;20.90;82.90
6556;DHT22;3311;48.32423000;14.29074500;2022-09-09T17:18:09;20.90;83.10
6556;DHT22;3311;48.32423000;14.29074500;2022-09-09T17:20:37;20.80;83.30
6556;DHT22;3311;48.32423000;14.29074500;2022-09-09T17:23:05;20.80;83.70
6556;DHT22;3311;48.32423000;14.29074500;2022-09-09T17:25:32;20.80;83.50
6556;DHT22;3311;48.32423000;14.29074500;2022-09-09T17:28:02;20.90;83.30
6556;DHT22;3311;48.32423000;14.29074500;2022-09-09T17:30:30;20.90;83.20
6556;DHT22;3311;48.32423000;14.29074500;2022-09-09T17:33:00;20.80;83.20
6556;DHT22;3311;48.32423000;14.29074500;2022-09-09T17:35:28;20.90;83.20
6556;DHT22;3311;48.32423000;14.29074500;2022-09-09T17:37:55;20.90;82.90
6556;DHT22;3311;48.32423000;14.29074500;2022-09-09T17:40:23;21.00;83.00
6556;DHT22;3311;48.32423000;14.29074500;2022-09-09T17:42:50;21.00;82.80
6556;DHT22;3311;48.32423000;14.29074500;2022-09-09T17:45:19;21.00;82.60
6556;DHT22;3311;48.32423000;14.29074500;2022-09-09T17:47:46;21.00;82.60
6556;DHT22;3311;48.32423000;14.29074500;2022-09-09T17:50:15;21.00;82.80
6556;DHT22;3311;48.32423000;14.29074500;2022-09-09T17:52:44;20.80;83.00
6556;DHT22;3311;48.32423000;14.29074500;2022-09-09T17:55:11;20.80;83.20
6556;DHT22;3311;48.32423000;14.29074500;2022-09-09T17:57:38;20.90;83.00
6556;DHT22;3311;48.32423000;14.29074500;2022-09-09T18:00:07;20.90;82.80
6556;DHT22;3311;48.32423000;14.29074500;2022-09-09T18:02:37;20.80;83.20
6556;DHT22;3311;48.32423000;14.29074500;2022-09-09T18:05:05;20.70;83.50
6556;DHT22;3311;48.32423000;14.29074500;2022-09-09T18:07:33;20.60;83.80
6556;DHT22;3311;48.32423000;14.29074500;2022-09-09T18:10:00;20.70;83.60
6556;DHT22;3311;48.32423000;14.29074500;2022-09-09T18:12:27;20.80;83.30
6556;DHT22;3311;48.32423000;14.29074500;2022-09-09T18:14:55;20.80;83.00
6556;DHT22;3311;48.32423000;14.29074500;2022-09-09T18:17:22;20.80;83.00
6556;DHT22;3311;48.32423000;14.29074500;2022-09-09T18:19:51;20.80;83.10
6556;DHT22;3311;48.32423000;14.29074500;2022-09-09T18:22:19;20.70;83.30
6556;DHT22;3311;48.32423000;14.29074500;2022-09-09T18:24:48;20.80;83.40
6556;DHT22;3311;48.32423000;14.29074500;2022-09-09T18:27:15;20.80;83.20
6556;DHT22;3311;48.32423000;14.29074500;2022-09-09T18:29:42;20.70;83.80
6556;DHT22;3311;48.32423000;14.29074500;2022-09-09T18:32:10;20.60;83.50
6556;DHT22;3311;48.32423000;14.29074500;2022-09-09T18:34:37;20.50;83.90
6556;DHT22;3311;48.32423000;14.29074500;2022-09-09T18:37:05;20.50;84.00
6556;DHT22;3311;48.32423000;14.29074500;2022-09-09T18:39:34;20.50;83.80
6556;DHT22;3311;48.32423000;14.29074500;2022-09-09T18:42:01;20.60;83.80
6556;DHT22;3311;48.32423000;14.29074500;2022-09-09T18:44:31;20.60;83.70
6556;DHT22;3311;48.32423000;14.29074500;2022-09-09T18:47:00;20.60;83.80
6556;DHT22;3311;48.32423000;14.29074500;2022-09-09T18:49:27;20.50;84.00
6556;DHT22;3311;48.32423000;14.29074500;2022-09-09T18:51:55;20.40;84.30
6556;DHT22;3311;48.32423000;14.29074500;2022-09-09T18:54:25;20.40;84.50
6556;DHT22;3311;48.32423000;14.29074500;2022-09-09T18:56:54;20.40;84.60
6556;DHT22;3311;48.32423000;14.29074500;2022-09-09T18:59:22;20.30;84.60